Decoded Metar for KISW (WISCONSIN RAPIDS in WI, USA) (IATA:ISW) | Meteo·Mobile Aviation Weather
aviador You're here:

KISW Decoded Metar

WISCONSIN RAPIDS in WI, USA
Report Time2019-10-18 13:54:00
UTC Time2019-10-18 14:18:41
Flight Rules vfr VFR
Wind150° at 08 kt
W.Decomp.*RWY 18: 7.0 kt HW 3.9 kt LCW
RWY 12: 6.9 kt HW 4.1 kt RCW
RWY 20: 5.2 kt HW 6 kt LCW
Visibility9999 m
Phenomena:N/A
Clouds:N/A
Expected CloudBase > 1,200 ft AGL from Temp-Dew spread
CeilingNone
Temp06°C (ISA -7)
Dew Point03°C (81% RH)
AAT1.6°C
QNH1016 hPa
Density Alt171 ft
Elevation1,007 ft
Report Wrong Elevation
Raw Report
KISW 181354Z AUTO 15008KT 10SM CLR 06/03 A2999 RMK AO2 SLP164
T00560033=

Extra information for KISW:More info

Metar Taf Metar & Taf Last 4 Metars F.Rules Stats Wind Profile Meteogram Temp Stats Airport Information Weather charts Add Link Nearby VenuesMetar ALERT Operation Metar Decoded Social comments

AIRNAV info for KISW